Bagshot, United Kingdom
Current Conditions -  °F | °C
As of 7:20 PM on Sunday 23 Nov 2014 (Local Time) from EGLF Reporting Station
Few Clouds Few Clouds  
Wind Chill: 41°   Ceiling: Unl
Heat Index: 45°   Visibility: 6mi
Dew Point: 43°   Wind: 6mph
Humidity: 93%   Direction: 300°WNW
Pressure: 30.12"   Gusts: NA
Location:  51.36°N, 0.69°W
Report Text: EGLF 231920Z 30005KT 9000 FEW014 07/06 Q1020
Loading
Personal Weather Stations






























Interactive Weather Map New forecast layout! Learn more

10-Day Weather Forecast

Advertisements
Track Severe Weather on mobile